createdAt,value
2022-10-23T00:00:03.538Z,10.80
2022-10-23T00:01:03.559Z,10.80
2022-10-23T00:02:03.607Z,10.80
2022-10-23T00:03:02.668Z,10.70
2022-10-23T00:04:02.694Z,10.80
2022-10-23T00:05:02.706Z,10.70
2022-10-23T00:06:02.780Z,10.70
2022-10-23T00:07:02.845Z,10.70
2022-10-23T00:08:02.848Z,10.70
2022-10-23T00:09:02.978Z,10.70
2022-10-23T00:10:03.435Z,10.70
2022-10-23T00:11:03.356Z,10.70
2022-10-23T00:12:03.521Z,10.70
2022-10-23T00:13:03.475Z,10.70
2022-10-23T00:14:02.659Z,10.70
2022-10-23T00:15:02.746Z,10.70
2022-10-23T00:16:02.891Z,10.60
2022-10-23T00:17:03.020Z,10.60
2022-10-23T00:18:03.002Z,10.60
2022-10-23T00:19:03.092Z,10.60
2022-10-23T00:20:03.117Z,10.60
2022-10-23T00:21:03.071Z,10.60
2022-10-23T00:22:03.105Z,10.60
2022-10-23T00:23:03.183Z,10.60
2022-10-23T00:24:03.201Z,10.60
2022-10-23T00:25:03.357Z,10.60
2022-10-23T00:26:03.315Z,10.60
2022-10-23T00:27:03.344Z,10.60
2022-10-23T00:28:03.448Z,10.60
2022-10-23T00:29:03.504Z,10.60
2022-10-23T00:30:03.611Z,10.60
2022-10-23T00:31:03.518Z,10.60
2022-10-23T00:32:03.578Z,10.60
2022-10-23T00:33:03.590Z,10.60
2022-10-23T00:34:02.692Z,10.60
2022-10-23T00:35:02.678Z,10.60
2022-10-23T00:36:02.708Z,10.60
2022-10-23T00:37:02.782Z,10.60
2022-10-23T00:38:02.744Z,10.60
2022-10-23T00:39:02.757Z,10.60
2022-10-23T00:40:02.902Z,10.60
2022-10-23T00:41:03.185Z,10.60
2022-10-23T00:42:03.203Z,10.60
2022-10-23T00:43:03.287Z,10.60
2022-10-23T00:44:03.419Z,10.60
2022-10-23T00:45:03.598Z,10.60
2022-10-23T00:46:03.553Z,10.60
2022-10-23T00:47:02.692Z,10.60
2022-10-23T00:48:02.980Z,10.60
2022-10-23T00:49:03.142Z,10.60
2022-10-23T00:50:02.625Z,10.60
2022-10-23T00:51:02.660Z,10.60
2022-10-23T00:52:02.625Z,10.60
2022-10-23T00:53:02.702Z,10.60
2022-10-23T00:54:22.734Z,10.60
2022-10-23T00:55:02.856Z,10.60
2022-10-23T00:56:02.918Z,10.60
2022-10-23T00:57:03.063Z,10.60
2022-10-23T00:58:03.120Z,10.60
2022-10-23T00:59:03.176Z,10.60
2022-10-23T01:00:03.110Z,10.60
2022-10-23T01:01:03.162Z,10.60
2022-10-23T01:02:03.302Z,10.60
2022-10-23T01:03:03.102Z,10.60
2022-10-23T01:04:03.246Z,10.60
2022-10-23T01:05:03.300Z,10.60
2022-10-23T01:06:03.420Z,10.60
2022-10-23T01:07:03.319Z,10.60
2022-10-23T01:08:03.490Z,10.60
2022-10-23T01:09:02.649Z,10.60
2022-10-23T01:10:02.593Z,10.60
2022-10-23T01:11:03.331Z,10.60
2022-10-23T01:12:03.374Z,10.60
2022-10-23T01:13:03.374Z,10.60
2022-10-23T01:15:03.234Z,10.60
2022-10-23T01:16:03.278Z,10.60
2022-10-23T01:17:03.343Z,10.60
2022-10-23T01:18:03.306Z,10.60
2022-10-23T01:19:03.275Z,10.60
2022-10-23T01:20:03.478Z,10.50
2022-10-23T01:21:03.559Z,10.60
2022-10-23T01:22:02.699Z,10.50
2022-10-23T01:23:02.847Z,10.50
2022-10-23T01:24:02.842Z,10.50
2022-10-23T01:25:02.980Z,10.50
2022-10-23T01:26:03.041Z,10.50
2022-10-23T01:27:03.055Z,10.50
2022-10-23T01:28:03.099Z,10.50
2022-10-23T01:29:03.259Z,10.50
2022-10-23T01:30:03.314Z,10.50
2022-10-23T01:31:03.495Z,10.50
2022-10-23T01:32:03.527Z,10.50
2022-10-23T01:33:03.603Z,10.50
2022-10-23T01:34:02.773Z,10.50
2022-10-23T01:35:02.748Z,10.50
2022-10-23T01:36:02.780Z,10.50
2022-10-23T01:37:02.887Z,10.50
2022-10-23T01:38:02.890Z,10.50
2022-10-23T01:40:03.106Z,10.50
2022-10-23T01:41:03.218Z,10.40
2022-10-23T01:42:03.222Z,10.40
2022-10-23T01:43:03.218Z,10.40
2022-10-23T01:44:03.278Z,10.40
2022-10-23T01:45:03.396Z,10.40
2022-10-23T01:46:03.445Z,10.40
2022-10-23T01:47:03.512Z,10.40
2022-10-23T01:48:03.487Z,10.40
2022-10-23T01:49:03.654Z,10.40
2022-10-23T01:50:03.630Z,10.40
2022-10-23T01:51:02.671Z,10.40
2022-10-23T01:52:02.715Z,10.30
2022-10-23T01:53:02.864Z,10.30
2022-10-23T01:54:02.847Z,10.30
2022-10-23T01:55:02.943Z,10.30
2022-10-23T01:56:02.953Z,10.30
2022-10-23T01:57:03.067Z,10.30
2022-10-23T01:58:03.129Z,10.30
2022-10-23T01:59:03.260Z,10.30
2022-10-23T02:00:03.305Z,10.30
2022-10-23T02:01:03.560Z,10.30
2022-10-23T02:02:03.645Z,10.30
2022-10-23T02:03:03.581Z,10.30
2022-10-23T02:04:02.680Z,10.30
2022-10-23T02:05:02.743Z,10.30
2022-10-23T02:06:02.806Z,10.30
2022-10-23T02:07:02.867Z,10.30
2022-10-23T02:08:02.959Z,10.30
2022-10-23T02:09:03.081Z,10.30
2022-10-23T02:10:03.165Z,10.30
2022-10-23T02:11:03.254Z,10.20
2022-10-23T02:12:03.266Z,10.20
2022-10-23T02:13:03.369Z,10.20
2022-10-23T02:14:03.351Z,10.20
2022-10-23T02:15:03.517Z,10.20
2022-10-23T02:16:02.949Z,10.20
2022-10-23T02:17:03.027Z,10.20
2022-10-23T02:18:03.189Z,10.20
2022-10-23T02:19:03.177Z,10.20
2022-10-23T02:20:03.332Z,10.20
2022-10-23T02:21:03.491Z,10.20
2022-10-23T02:22:03.490Z,10.20
2022-10-23T02:23:03.497Z,10.20
2022-10-23T02:24:02.621Z,10.20
2022-10-23T02:25:02.741Z,10.10
2022-10-23T02:26:02.764Z,10.10
2022-10-23T02:27:03.229Z,10.10
2022-10-23T02:28:03.350Z,10.10
2022-10-23T02:29:03.486Z,10.10
2022-10-23T02:30:03.398Z,10.10
2022-10-23T02:31:03.514Z,10.10
2022-10-23T02:32:03.510Z,10.10
2022-10-23T02:33:02.661Z,10.10
2022-10-23T02:34:02.692Z,10.10
2022-10-23T02:35:02.810Z,10.10
2022-10-23T02:36:03.309Z,10.10
2022-10-23T02:37:02.646Z,10.10
2022-10-23T02:38:02.664Z,10.10
2022-10-23T02:39:02.718Z,10.10
2022-10-23T02:40:02.719Z,10.10
2022-10-23T02:41:02.841Z,10.10
2022-10-23T02:42:03.151Z,10.10
2022-10-23T02:43:03.299Z,10.10
2022-10-23T02:44:03.240Z,10.10
2022-10-23T02:45:03.337Z,10.00
2022-10-23T02:46:03.416Z,10.10
2022-10-23T02:47:03.529Z,10.00
2022-10-23T02:48:02.677Z,10.00
2022-10-23T02:49:02.754Z,10.00
2022-10-23T02:50:02.782Z,10.00
2022-10-23T02:51:02.826Z,10.00
2022-10-23T02:52:02.937Z,10.00
2022-10-23T02:53:02.963Z,10.10
2022-10-23T02:54:03.096Z,10.10
2022-10-23T02:55:03.132Z,10.10
2022-10-23T02:56:03.207Z,10.10
2022-10-23T02:57:03.287Z,10.10
2022-10-23T02:58:03.290Z,10.10
2022-10-23T02:59:03.171Z,10.10
2022-10-23T03:00:03.225Z,10.10
2022-10-23T03:01:03.403Z,10.10
2022-10-23T03:02:03.593Z,10.20
2022-10-23T03:03:03.440Z,10.10
2022-10-23T03:04:04.475Z,10.10
2022-10-23T03:05:03.554Z,10.10
2022-10-23T03:06:03.587Z,10.10
2022-10-23T03:07:02.667Z,10.10
2022-10-23T03:08:02.658Z,10.10
2022-10-23T03:09:02.749Z,10.10
2022-10-23T03:10:02.791Z,10.10
2022-10-23T03:11:02.784Z,10.20
2022-10-23T03:12:02.802Z,10.20
2022-10-23T03:13:03.179Z,10.20
2022-10-23T03:14:03.214Z,10.20
2022-10-23T03:15:03.450Z,10.20
2022-10-23T03:16:03.514Z,10.20
2022-10-23T03:17:03.582Z,10.20
2022-10-23T03:18:03.644Z,10.20
2022-10-23T03:19:02.704Z,10.20
2022-10-23T03:20:02.769Z,10.20
2022-10-23T03:21:02.790Z,10.20
2022-10-23T03:22:02.889Z,10.20
2022-10-23T03:23:02.997Z,10.20
2022-10-23T03:24:03.043Z,10.20
2022-10-23T03:25:03.005Z,10.20
2022-10-23T03:26:03.087Z,10.20
2022-10-23T03:27:03.147Z,10.20
2022-10-23T03:28:03.159Z,10.20
2022-10-23T03:29:03.265Z,10.20
2022-10-23T03:30:03.278Z,10.20
2022-10-23T03:31:03.291Z,10.20
2022-10-23T03:32:03.338Z,10.20
2022-10-23T03:33:03.317Z,10.20
2022-10-23T03:34:05.129Z,10.20
2022-10-23T03:35:03.473Z,10.20
2022-10-23T03:36:03.476Z,10.20
2022-10-23T03:37:02.638Z,10.10
2022-10-23T03:38:02.802Z,10.10
2022-10-23T03:39:02.838Z,10.10
2022-10-23T03:40:03.514Z,10.10
2022-10-23T03:41:03.602Z,10.10
2022-10-23T03:42:02.611Z,10.10
2022-10-23T03:43:02.638Z,10.10
2022-10-23T03:44:02.706Z,10.10
2022-10-23T03:45:02.724Z,10.10
2022-10-23T03:46:02.772Z,10.10
2022-10-23T03:47:02.880Z,10.10
2022-10-23T03:48:02.986Z,10.10
2022-10-23T03:49:03.011Z,10.00
2022-10-23T03:50:03.033Z,10.00
2022-10-23T03:51:03.036Z,10.00
2022-10-23T03:52:03.203Z,10.00
2022-10-23T03:53:03.294Z,10.00
2022-10-23T03:54:03.305Z,10.00
2022-10-23T03:55:03.430Z,10.00
2022-10-23T03:56:03.580Z,10.00
2022-10-23T03:57:02.655Z,10.00
2022-10-23T03:58:02.635Z,10.00
2022-10-23T03:59:02.743Z,9.90
2022-10-23T04:00:02.714Z,9.90
2022-10-23T04:01:02.808Z,9.90
2022-10-23T04:02:02.985Z,9.90
2022-10-23T04:03:02.877Z,9.90
2022-10-23T04:04:02.908Z,9.90
2022-10-23T04:05:03.067Z,9.90
2022-10-23T04:06:03.064Z,9.90
2022-10-23T04:07:03.155Z,9.90
2022-10-23T04:08:03.152Z,9.90
2022-10-23T04:09:03.327Z,9.90
2022-10-23T04:10:03.260Z,9.90
2022-10-23T04:11:03.482Z,9.90
2022-10-23T04:12:03.380Z,9.90
2022-10-23T04:13:03.416Z,9.90
2022-10-23T04:14:03.429Z,9.90
2022-10-23T04:15:03.520Z,9.90
2022-10-23T04:16:03.461Z,9.90
2022-10-23T04:17:03.596Z,9.90
2022-10-23T04:18:02.630Z,9.90
2022-10-23T04:19:02.981Z,9.90
2022-10-23T04:20:02.831Z,9.80
2022-10-23T04:21:02.795Z,9.80
2022-10-23T04:22:02.847Z,9.80
2022-10-23T04:23:02.868Z,9.80
2022-10-23T04:24:02.872Z,9.80
2022-10-23T04:25:03.171Z,9.80
2022-10-23T04:26:03.163Z,9.80
2022-10-23T04:27:03.261Z,9.80
2022-10-23T04:28:03.283Z,9.80
2022-10-23T04:29:03.429Z,9.80
2022-10-23T04:30:03.420Z,9.80
2022-10-23T04:31:03.448Z,9.80
2022-10-23T04:32:03.611Z,9.80
2022-10-23T04:33:02.681Z,9.80
2022-10-23T04:34:02.754Z,9.80
2022-10-23T04:35:02.805Z,9.80
2022-10-23T04:36:02.920Z,9.80
2022-10-23T04:37:02.874Z,9.80
2022-10-23T04:38:02.890Z,9.80
2022-10-23T04:39:03.055Z,9.80
2022-10-23T04:40:03.081Z,9.80
2022-10-23T04:41:03.307Z,9.80
2022-10-23T04:42:03.289Z,9.80
2022-10-23T04:43:03.346Z,9.80
2022-10-23T04:44:03.335Z,9.80
2022-10-23T04:45:03.342Z,9.80
2022-10-23T04:46:03.477Z,9.80
2022-10-23T04:47:03.563Z,9.80
2022-10-23T04:48:02.606Z,9.80
2022-10-23T04:49:02.738Z,9.80
2022-10-23T04:50:02.771Z,9.70
2022-10-23T04:51:02.796Z,9.70
2022-10-23T04:52:02.859Z,9.70
2022-10-23T04:53:02.884Z,9.70
2022-10-23T04:54:02.804Z,9.70
2022-10-23T04:55:03.052Z,9.70
2022-10-23T04:56:03.040Z,9.70
2022-10-23T04:57:03.158Z,9.70
2022-10-23T04:58:03.060Z,9.70
2022-10-23T04:59:03.105Z,9.60
2022-10-23T05:00:03.047Z,9.70
2022-10-23T05:01:03.074Z,9.70
2022-10-23T05:02:03.190Z,9.60
2022-10-23T05:03:03.144Z,9.70
2022-10-23T05:04:03.150Z,9.60
2022-10-23T05:05:03.100Z,9.60
2022-10-23T05:06:03.027Z,9.60
2022-10-23T05:07:03.029Z,9.60
2022-10-23T05:08:03.094Z,9.60
2022-10-23T05:09:03.132Z,9.60
2022-10-23T05:10:03.069Z,9.60
2022-10-23T05:11:03.134Z,9.60
2022-10-23T05:12:03.079Z,9.60
2022-10-23T05:13:03.162Z,9.60
2022-10-23T05:14:03.226Z,9.60
2022-10-23T05:15:03.227Z,9.60
2022-10-23T05:16:03.250Z,9.60
2022-10-23T05:17:03.292Z,9.60
2022-10-23T05:18:03.255Z,9.60
2022-10-23T05:19:03.212Z,9.60
2022-10-23T05:20:03.244Z,9.50
2022-10-23T05:21:03.232Z,9.50
2022-10-23T05:22:03.173Z,9.50
2022-10-23T05:23:03.226Z,9.50
2022-10-23T05:24:03.166Z,9.50
2022-10-23T05:25:03.227Z,9.50
2022-10-23T05:26:02.788Z,9.50
2022-10-23T05:27:02.747Z,9.50
2022-10-23T05:28:02.805Z,9.50
2022-10-23T05:29:02.742Z,9.50
2022-10-23T05:30:02.815Z,9.40
2022-10-23T05:31:02.821Z,9.40
2022-10-23T05:32:02.906Z,9.40
2022-10-23T05:33:02.804Z,9.40
2022-10-23T05:34:02.881Z,9.40
2022-10-23T05:35:02.749Z,9.40
2022-10-23T05:36:02.851Z,9.40
2022-10-23T05:37:02.899Z,9.40
2022-10-23T05:38:02.852Z,9.40
2022-10-23T05:39:02.781Z,9.40
2022-10-23T05:40:02.858Z,9.40
2022-10-23T05:41:02.780Z,9.40
2022-10-23T05:42:02.817Z,9.30
2022-10-23T05:43:02.772Z,9.30
2022-10-23T05:44:02.827Z,9.30
2022-10-23T05:45:02.904Z,9.30
2022-10-23T05:46:02.816Z,9.30
2022-10-23T05:47:02.939Z,9.30
2022-10-23T05:48:05.891Z,9.30
2022-10-23T05:49:03.040Z,9.30
2022-10-23T05:50:02.919Z,9.30
2022-10-23T05:51:03.012Z,9.20
2022-10-23T05:52:03.389Z,9.20
2022-10-23T05:53:03.449Z,9.20
2022-10-23T05:54:03.613Z,9.20
2022-10-23T05:55:02.686Z,9.20
2022-10-23T05:56:02.617Z,9.20
2022-10-23T05:57:02.771Z,9.20
2022-10-23T05:58:02.759Z,9.20
2022-10-23T05:59:02.826Z,9.20
2022-10-23T06:00:02.816Z,9.20
2022-10-23T06:01:02.909Z,9.20
2022-10-23T06:02:03.007Z,9.20
2022-10-23T06:03:02.830Z,9.20
2022-10-23T06:04:02.842Z,9.20
2022-10-23T06:05:02.928Z,9.20
2022-10-23T06:06:02.956Z,9.20
2022-10-23T06:07:03.010Z,9.20
2022-10-23T06:08:02.997Z,9.20
2022-10-23T06:09:02.985Z,9.20
2022-10-23T06:10:03.018Z,9.20
2022-10-23T06:11:02.987Z,9.20
2022-10-23T06:12:03.031Z,9.20
2022-10-23T06:13:02.997Z,9.20
2022-10-23T06:14:02.935Z,9.20
2022-10-23T06:15:02.953Z,9.20
2022-10-23T06:16:02.957Z,9.20
2022-10-23T06:17:02.996Z,9.20
2022-10-23T06:18:03.044Z,9.20
2022-10-23T06:19:03.266Z,9.20
2022-10-23T06:20:03.324Z,9.20
2022-10-23T06:21:03.467Z,9.20
2022-10-23T06:22:03.532Z,9.20
2022-10-23T06:23:03.439Z,9.20
2022-10-23T06:24:03.605Z,9.20
2022-10-23T06:25:02.667Z,9.20
2022-10-23T06:26:02.791Z,9.20
2022-10-23T06:27:03.062Z,9.30
2022-10-23T06:28:03.087Z,9.30
2022-10-23T06:29:03.097Z,9.30
2022-10-23T06:30:03.130Z,9.30
2022-10-23T06:31:03.167Z,9.30
2022-10-23T06:32:03.154Z,9.30
2022-10-23T06:33:03.378Z,9.30
2022-10-23T06:34:03.048Z,9.30
2022-10-23T06:35:03.145Z,9.40
2022-10-23T06:36:03.101Z,9.40
2022-10-23T06:37:03.097Z,9.40
2022-10-23T06:38:03.084Z,9.40
2022-10-23T06:39:03.199Z,9.50
2022-10-23T06:40:03.272Z,9.50
2022-10-23T06:41:03.289Z,9.50
2022-10-23T06:42:03.296Z,9.60
2022-10-23T06:43:03.243Z,9.60
2022-10-23T06:44:03.207Z,9.70
2022-10-23T06:45:04.621Z,9.70
2022-10-23T06:46:03.298Z,9.70
2022-10-23T06:47:03.252Z,9.80
2022-10-23T06:48:03.294Z,9.80
2022-10-23T06:49:03.319Z,9.80
2022-10-23T06:50:03.399Z,9.90
2022-10-23T06:51:03.495Z,9.90
2022-10-23T06:52:03.538Z,10.00
2022-10-23T06:53:03.483Z,10.10
2022-10-23T06:54:03.585Z,10.20
2022-10-23T06:55:02.714Z,10.20
2022-10-23T06:56:02.780Z,10.30
2022-10-23T06:57:02.747Z,10.40
2022-10-23T06:58:02.821Z,10.50
2022-10-23T06:59:02.879Z,10.60
2022-10-23T07:00:02.871Z,10.70
2022-10-23T07:01:02.963Z,10.80
2022-10-23T07:02:02.868Z,10.90
2022-10-23T07:03:02.797Z,11.00
2022-10-23T07:04:02.916Z,11.10
2022-10-23T07:05:02.954Z,11.10
2022-10-23T07:06:03.014Z,11.20
2022-10-23T07:07:02.947Z,11.30
2022-10-23T07:08:02.797Z,11.30
2022-10-23T07:09:02.682Z,11.40
2022-10-23T07:10:03.217Z,11.40
2022-10-23T07:11:03.166Z,11.50
2022-10-23T07:12:03.096Z,11.50
2022-10-23T07:13:03.002Z,11.50
2022-10-23T07:14:03.097Z,11.50
2022-10-23T07:15:02.976Z,11.60
2022-10-23T07:16:03.495Z,11.60
2022-10-23T07:17:03.586Z,11.60
2022-10-23T07:18:03.543Z,11.60
2022-10-23T07:19:02.649Z,11.60
2022-10-23T07:20:02.720Z,11.60
2022-10-23T07:21:02.680Z,11.60
2022-10-23T07:22:02.772Z,11.70
2022-10-23T07:23:02.826Z,11.70
2022-10-23T07:24:02.775Z,11.70
2022-10-23T07:25:02.970Z,11.70
2022-10-23T07:26:02.906Z,11.70
2022-10-23T07:27:02.996Z,11.70
2022-10-23T07:28:02.914Z,11.70
2022-10-23T07:29:03.019Z,11.70
2022-10-23T07:30:02.912Z,11.70
2022-10-23T07:31:03.039Z,11.80
2022-10-23T07:32:03.024Z,11.80
2022-10-23T07:33:03.061Z,11.80
2022-10-23T07:34:03.539Z,11.80
2022-10-23T07:35:03.657Z,11.80
2022-10-23T07:36:02.642Z,11.80
2022-10-23T07:37:02.689Z,11.80
2022-10-23T07:38:02.853Z,11.90
2022-10-23T07:39:02.778Z,11.90
2022-10-23T07:40:02.948Z,11.90
2022-10-23T07:41:02.779Z,11.90
2022-10-23T07:42:02.896Z,11.90
2022-10-23T07:43:03.099Z,12.00
2022-10-23T07:44:03.055Z,12.00
2022-10-23T07:45:02.989Z,12.00
2022-10-23T07:46:02.978Z,12.00
2022-10-23T07:47:03.028Z,12.00
2022-10-23T07:48:03.247Z,12.10
2022-10-23T07:49:03.295Z,12.10
2022-10-23T07:50:03.345Z,12.10
2022-10-23T07:51:03.480Z,12.10
2022-10-23T07:53:03.471Z,12.20
2022-10-23T07:54:03.488Z,12.20
2022-10-23T07:55:03.488Z,12.30
2022-10-23T07:56:03.518Z,12.30
2022-10-23T07:57:03.618Z,12.30
2022-10-23T07:58:03.588Z,12.40
2022-10-23T07:59:02.672Z,12.40
2022-10-23T08:00:02.655Z,12.40
2022-10-23T08:01:02.748Z,12.50
2022-10-23T08:02:02.708Z,12.50
2022-10-23T08:03:02.730Z,12.50
2022-10-23T08:04:02.761Z,12.60
2022-10-23T08:05:02.681Z,12.60
2022-10-23T08:06:02.775Z,12.60
2022-10-23T08:07:02.704Z,12.70
2022-10-23T08:08:02.706Z,12.70
2022-10-23T08:09:05.297Z,12.70
2022-10-23T08:10:02.768Z,12.80
2022-10-23T08:11:02.907Z,12.80
2022-10-23T08:12:03.297Z,12.80
2022-10-23T08:13:03.405Z,12.80
2022-10-23T08:14:03.397Z,12.90
2022-10-23T08:15:03.460Z,12.90
2022-10-23T08:16:03.350Z,12.90
2022-10-23T08:17:03.522Z,12.90
2022-10-23T08:18:03.404Z,13.00
2022-10-23T08:19:03.503Z,13.00
2022-10-23T08:20:03.595Z,13.00
2022-10-23T08:21:03.512Z,13.00
2022-10-23T08:22:03.253Z,13.10
2022-10-23T08:23:03.335Z,13.10
2022-10-23T08:24:02.929Z,13.10
2022-10-23T08:25:02.865Z,13.10
2022-10-23T08:26:02.863Z,13.20
2022-10-23T08:27:02.843Z,13.20
2022-10-23T08:28:04.192Z,13.20
2022-10-23T08:29:02.770Z,13.30
2022-10-23T08:30:02.940Z,13.30
2022-10-23T08:31:02.928Z,13.30
2022-10-23T08:32:02.815Z,13.30
2022-10-23T08:33:02.839Z,13.40
2022-10-23T08:34:02.949Z,13.40
2022-10-23T08:35:03.091Z,13.40
2022-10-23T08:36:03.139Z,13.40
2022-10-23T08:37:03.327Z,13.40
2022-10-23T08:38:03.303Z,13.50
2022-10-23T08:39:03.303Z,13.50
2022-10-23T08:40:03.240Z,13.50
2022-10-23T08:41:03.265Z,13.50
2022-10-23T08:42:03.400Z,13.60
2022-10-23T08:43:03.389Z,13.60
2022-10-23T08:44:03.571Z,13.60
2022-10-23T08:45:03.602Z,13.60
2022-10-23T08:46:05.029Z,13.70
2022-10-23T08:47:02.614Z,13.70
2022-10-23T08:48:02.767Z,13.70
2022-10-23T08:49:02.736Z,13.70
2022-10-23T08:50:02.772Z,13.80
2022-10-23T08:51:02.767Z,13.80
2022-10-23T08:52:02.813Z,13.80
2022-10-23T08:53:02.745Z,13.90
2022-10-23T08:54:02.703Z,13.90
2022-10-23T08:55:02.647Z,14.00
2022-10-23T08:56:03.640Z,14.00
2022-10-23T08:57:02.689Z,14.00
2022-10-23T08:58:02.827Z,14.10
2022-10-23T08:59:02.904Z,14.10
2022-10-23T09:00:02.639Z,14.20
2022-10-23T09:01:02.867Z,14.20
2022-10-23T09:02:02.829Z,14.20
2022-10-23T09:03:02.749Z,14.30
2022-10-23T09:04:02.892Z,14.30
2022-10-23T09:05:02.945Z,14.40
2022-10-23T09:06:03.101Z,14.40
2022-10-23T09:07:03.021Z,14.50
2022-10-23T09:08:03.332Z,14.50
2022-10-23T09:09:03.334Z,14.50
2022-10-23T09:10:03.323Z,14.60
2022-10-23T09:11:03.577Z,14.60
2022-10-23T09:12:03.470Z,14.70
2022-10-23T09:13:02.933Z,14.70
2022-10-23T09:14:03.083Z,14.80
2022-10-23T09:15:03.125Z,14.80
2022-10-23T09:16:03.164Z,14.90
2022-10-23T09:17:03.339Z,15.00
2022-10-23T09:18:03.271Z,15.00
2022-10-23T09:19:03.222Z,15.00
2022-10-23T09:20:03.315Z,15.10
2022-10-23T09:21:03.397Z,15.10
2022-10-23T09:22:03.335Z,15.20
2022-10-23T09:23:03.336Z,15.20
2022-10-23T09:24:03.367Z,15.30
2022-10-23T09:25:03.364Z,15.30
2022-10-23T09:26:03.492Z,15.40
2022-10-23T09:28:05.453Z,15.50
2022-10-23T09:29:03.474Z,15.50
2022-10-23T09:30:03.568Z,15.50
2022-10-23T09:31:02.749Z,15.50
2022-10-23T09:32:02.709Z,15.60
2022-10-23T09:33:02.668Z,15.60
2022-10-23T09:34:02.723Z,15.70
2022-10-23T09:35:02.777Z,15.70
2022-10-23T09:36:02.661Z,15.80
2022-10-23T09:37:02.624Z,15.80
2022-10-23T09:38:03.610Z,15.80
2022-10-23T09:39:03.486Z,15.90
2022-10-23T09:40:03.633Z,15.90
2022-10-23T09:41:03.603Z,15.90
2022-10-23T09:42:02.773Z,16.00
2022-10-23T09:43:02.772Z,16.00
2022-10-23T09:44:02.859Z,16.00
2022-10-23T09:45:02.838Z,16.00
2022-10-23T09:46:02.801Z,16.00
2022-10-23T09:47:02.808Z,16.10
2022-10-23T09:48:02.873Z,16.10
2022-10-23T09:49:03.613Z,16.10
2022-10-23T09:50:02.843Z,16.10
2022-10-23T09:51:02.921Z,16.10
2022-10-23T09:52:02.904Z,16.20
2022-10-23T09:53:02.831Z,16.20
2022-10-23T09:54:02.903Z,16.20
2022-10-23T09:55:02.920Z,16.20
2022-10-23T09:56:02.864Z,16.30
2022-10-23T09:57:02.935Z,16.30
2022-10-23T09:58:02.896Z,16.30
2022-10-23T09:59:02.924Z,16.30
2022-10-23T10:00:03.012Z,16.30
2022-10-23T10:01:03.147Z,16.40
2022-10-23T10:02:03.176Z,16.40
2022-10-23T10:03:02.986Z,16.40
2022-10-23T10:04:03.041Z,16.40
2022-10-23T10:05:02.974Z,16.50
2022-10-23T10:06:02.993Z,16.50
2022-10-23T10:07:02.937Z,16.60
2022-10-23T10:08:03.024Z,16.60
2022-10-23T10:09:02.938Z,16.70
2022-10-23T10:10:03.066Z,16.70
2022-10-23T10:11:03.079Z,16.70
2022-10-23T10:12:03.078Z,16.70
2022-10-23T10:13:02.999Z,16.80
2022-10-23T10:14:02.914Z,16.80
2022-10-23T10:15:02.941Z,16.80
2022-10-23T10:16:02.955Z,16.90
2022-10-23T10:17:02.881Z,16.90
2022-10-23T10:18:02.995Z,16.90
2022-10-23T10:19:03.045Z,16.90
2022-10-23T10:20:05.166Z,17.00
2022-10-23T10:21:03.037Z,17.00
2022-10-23T10:22:03.049Z,17.00
2022-10-23T10:23:03.004Z,17.00
2022-10-23T10:24:03.013Z,17.10
2022-10-23T10:25:03.097Z,17.10
2022-10-23T10:26:03.153Z,17.20
2022-10-23T10:27:03.148Z,17.20
2022-10-23T10:28:03.164Z,17.20
2022-10-23T10:29:03.304Z,17.30
2022-10-23T10:30:03.362Z,17.30
2022-10-23T10:31:03.345Z,17.40
2022-10-23T10:32:03.361Z,17.40
2022-10-23T10:33:03.566Z,17.40
2022-10-23T10:34:03.539Z,17.50
2022-10-23T10:35:03.497Z,17.50
2022-10-23T10:36:03.542Z,17.50
2022-10-23T10:37:03.533Z,17.60
2022-10-23T10:38:03.532Z,17.60
2022-10-23T10:39:03.463Z,17.70
2022-10-23T10:40:03.451Z,17.70
2022-10-23T10:41:03.453Z,17.70
2022-10-23T10:42:03.558Z,17.80
2022-10-23T10:43:02.652Z,17.80
2022-10-23T10:44:02.705Z,17.90
2022-10-23T10:45:02.662Z,17.90
2022-10-23T10:46:03.708Z,17.90
2022-10-23T10:47:03.587Z,18.00
2022-10-23T10:48:03.538Z,18.00
2022-10-23T10:49:03.498Z,18.00
2022-10-23T10:50:03.482Z,18.10
2022-10-23T10:51:03.527Z,18.10
2022-10-23T10:52:03.543Z,18.10
2022-10-23T10:53:03.544Z,18.10
2022-10-23T10:54:03.543Z,18.20
2022-10-23T10:55:03.504Z,18.20
2022-10-23T10:56:03.620Z,18.20
2022-10-23T10:57:03.605Z,18.20
2022-10-23T10:58:03.551Z,18.30
2022-10-23T10:59:03.585Z,18.30
2022-10-23T11:00:02.661Z,18.30
2022-10-23T11:01:02.815Z,18.30
2022-10-23T11:02:02.871Z,18.30
2022-10-23T11:03:02.916Z,18.30
2022-10-23T11:04:02.782Z,18.40
2022-10-23T11:05:02.825Z,18.40
2022-10-23T11:06:02.872Z,18.40
2022-10-23T11:07:02.821Z,18.40
2022-10-23T11:08:02.828Z,18.40
2022-10-23T11:09:15.797Z,18.40
2022-10-23T11:10:02.949Z,18.40
2022-10-23T11:11:02.949Z,18.40
2022-10-23T11:12:03.067Z,18.40
2022-10-23T11:13:02.960Z,18.50
2022-10-23T11:14:02.929Z,18.50
2022-10-23T11:15:02.983Z,18.50
2022-10-23T11:16:02.972Z,18.50
2022-10-23T11:17:03.118Z,18.50
2022-10-23T11:18:03.047Z,18.50
2022-10-23T11:19:03.155Z,18.50
2022-10-23T11:20:03.049Z,18.50
2022-10-23T11:21:03.091Z,18.50
2022-10-23T11:22:03.212Z,18.50
2022-10-23T11:23:03.171Z,18.60
2022-10-23T11:24:03.303Z,18.60
2022-10-23T11:25:03.294Z,18.60
2022-10-23T11:26:03.243Z,18.60
2022-10-23T11:27:03.259Z,18.60
2022-10-23T11:28:04.511Z,18.60
2022-10-23T11:29:03.261Z,18.60
2022-10-23T11:30:03.294Z,18.60
2022-10-23T11:31:03.257Z,18.60
2022-10-23T11:32:03.198Z,18.60
2022-10-23T11:33:03.215Z,18.70
2022-10-23T11:34:03.227Z,18.70
2022-10-23T11:35:03.288Z,18.70
2022-10-23T11:36:03.174Z,18.70
2022-10-23T11:37:03.153Z,18.70
2022-10-23T11:38:03.266Z,18.80
2022-10-23T11:39:03.273Z,18.80
2022-10-23T11:40:03.291Z,18.80
2022-10-23T11:41:03.279Z,18.90
2022-10-23T11:42:03.292Z,18.90
2022-10-23T11:43:03.286Z,18.90
2022-10-23T11:44:02.762Z,18.90
2022-10-23T11:45:03.509Z,18.90
2022-10-23T11:46:03.604Z,18.90
2022-10-23T11:47:02.711Z,18.90
2022-10-23T11:48:02.798Z,18.90
2022-10-23T11:49:02.774Z,18.90
2022-10-23T11:50:02.836Z,18.90
2022-10-23T11:51:04.289Z,19.00
2022-10-23T11:52:02.865Z,19.00
2022-10-23T11:53:13.519Z,19.00
2022-10-23T11:54:02.944Z,19.00
2022-10-23T11:55:03.172Z,19.00
2022-10-23T11:56:03.161Z,19.00
2022-10-23T11:57:03.193Z,19.00
2022-10-23T11:58:03.366Z,19.10
2022-10-23T11:59:03.335Z,19.10
2022-10-23T12:00:03.377Z,19.10
2022-10-23T12:01:03.550Z,19.10
2022-10-23T12:02:03.528Z,19.10
2022-10-23T12:03:03.626Z,19.10
2022-10-23T12:04:03.619Z,19.10
2022-10-23T12:05:02.717Z,19.20
2022-10-23T12:06:02.673Z,19.20
2022-10-23T12:07:02.735Z,19.20
2022-10-23T12:08:02.655Z,19.20
2022-10-23T12:09:02.812Z,19.20
2022-10-23T12:10:02.939Z,19.20
2022-10-23T12:11:02.867Z,19.20
2022-10-23T12:12:02.910Z,19.30
2022-10-23T12:13:02.988Z,19.20
2022-10-23T12:14:03.030Z,19.20
2022-10-23T12:15:03.007Z,19.20
2022-10-23T12:16:02.996Z,19.30
2022-10-23T12:17:03.057Z,19.30
2022-10-23T12:18:03.084Z,19.30
2022-10-23T12:19:03.107Z,19.30
2022-10-23T12:20:03.118Z,19.30
2022-10-23T12:21:03.022Z,19.30
2022-10-23T12:22:03.070Z,19.40
2022-10-23T12:23:03.099Z,19.40
2022-10-23T12:24:03.054Z,19.40
2022-10-23T12:25:02.946Z,19.40
2022-10-23T12:26:02.914Z,19.40
2022-10-23T12:27:02.879Z,19.40
2022-10-23T12:28:02.869Z,19.50
2022-10-23T12:29:02.903Z,19.50
2022-10-23T12:30:02.892Z,19.50
2022-10-23T12:31:02.917Z,19.50
2022-10-23T12:32:02.843Z,19.50
2022-10-23T12:33:02.924Z,19.50
2022-10-23T12:34:02.937Z,19.50
2022-10-23T12:35:02.936Z,19.50
2022-10-23T12:36:03.029Z,19.50
2022-10-23T12:37:03.015Z,19.50
2022-10-23T12:38:02.967Z,19.50
2022-10-23T12:39:03.113Z,19.50
2022-10-23T12:40:03.090Z,19.50
2022-10-23T12:41:03.040Z,19.50
2022-10-23T12:42:03.048Z,19.50
2022-10-23T12:43:02.967Z,19.50
2022-10-23T12:44:02.923Z,19.50
2022-10-23T12:45:02.975Z,19.50
2022-10-23T12:46:03.026Z,19.50
2022-10-23T12:47:03.021Z,19.50
2022-10-23T12:48:02.972Z,19.50
2022-10-23T12:49:02.873Z,19.50
2022-10-23T12:50:02.998Z,19.50
2022-10-23T12:51:02.901Z,19.50
2022-10-23T12:52:02.879Z,19.50
2022-10-23T12:53:02.860Z,19.50
2022-10-23T12:54:02.846Z,19.50
2022-10-23T12:55:02.923Z,19.50
2022-10-23T12:56:02.994Z,19.50
2022-10-23T12:57:03.027Z,19.50
2022-10-23T12:58:02.890Z,19.50
2022-10-23T12:59:02.929Z,19.50
2022-10-23T13:00:03.079Z,19.50
2022-10-23T13:01:03.197Z,19.50
2022-10-23T13:02:03.321Z,19.50